Dothan Regional Airport
KDHN : now visible

Airfield :











YOU CAN JOIN US ON...

 
LOGIN :

Register | Disclaimer

   EN    FR    IT 

 









Legend :    VFR   Marginal VFR   IFR   Intensive IFR   Very Intensive IFR
Visi :
Ceiling :
>= 8 km
>= 3000ft
5 to 8 km
1000 to 3000 ft
1500m to 5 km
500 to 1000 ft
800 to 1500m
200 to 500 ft
< 800m
< 200 ft
Symbols :   Thunderstorms  Fog  Heavy snow  Heavy precipitations  Wind > 20 kt






- Airport Elevation : 401 ft
- IATA code : DHN


KDHN - Dothan Regional

CURRENT METAR :
  • 171953Z 09013KT 10SM CLR 21/M02 A3041 RMK AO2 SLP295 T02061017

EXPIRED METARs :
  • 171853Z 09009KT 10SM CLR 20/M03 A3042 RMK AO2 SLP299 T02001028
  • 171753Z 08012KT 10SM CLR 19/M02 A3045 RMK AO2 SLP308 T01941017 10194 20111 58012

TAF KDHN
Valid from the 17 at 18:00 until the 18 at 18:00 UTC


171737Z 1718/1818 07013G20KT P6SM SKC
FM180300 10007KT P6SM SCT100
FM181400 13009KT P6SM BKN050



MET'MAP, your aeronautical weather chart ! - Copyright ORBIFLY December 2007 - Disclaimer

ORBIFLY MET'MAP TEAM :

Programming & Development : Alexandra Zaïnal
Concept & original design : Baudouin d'Aumeries
Assistance for programming : Marc-Olivier Méhu
Technical & hardware support : Manuel Goepfert

Contact : metmap@orbifly.com




SOURCES & CREDITS :

   NOAA       Earth
Advisory